Time;durP1;ratioP1;P1;durP2;ratioP2;P2;SDS_P1;SDS_P2;PMS_P1;PMS_P2;Temp;Humidity;BMP_temperature;BMP_pressure;BME280_temperature;BME280_humidity;BME280_pressure;Samples;Min_cycle;Max_cycle;Signal;HPM_P1;HPM_P2
2024/01/16 00:01:27;;;;;;;2.30;0.90;;;;;;;;;;43836;294;3032167;-33
2024/01/16 00:03:12;;;;;;;3.10;1.00;;;;;;;;;;43178;285;3031193;-33
2024/01/16 00:04:57;;;;;;;2.40;0.90;;;;;;;;;;43161;286;3031982;-33
2024/01/16 00:06:44;;;;;;;2.70;1.00;;;;;;;;;;43136;286;3031238;-33
2024/01/16 00:08:32;;;;;;;3.10;0.90;;;;;;;;;;43163;282;3031291;-33
2024/01/16 00:10:19;;;;;;;2.60;0.80;;;;;;;;;;43156;286;3031284;-33
2024/01/16 00:12:07;;;;;;;3.10;1.00;;;;;;;;;;43202;286;3031748;-33
2024/01/16 00:13:57;;;;;;;2.30;0.80;;;;;;;;;;43623;282;3031447;-33
2024/01/16 00:15:49;;;;;;;2.20;0.90;;;;;;;;;;43887;286;3031726;-34
2024/01/16 00:17:34;;;;;;;2.50;0.90;;;;;;;;;;43686;282;3032039;-34
2024/01/16 00:19:19;;;;;;;3.20;1.00;;;;;;;;;;43906;285;3031209;-34
2024/01/16 00:21:07;;;;;;;2.40;0.80;;;;;;;;;;43894;282;3037487;-34
2024/01/16 00:22:51;;;;;;;3.00;0.90;;;;;;;;;;43960;286;3031889;-34
2024/01/16 00:24:36;;;;;;;3.80;0.90;;;;;;;;;;43869;286;3031677;-34
2024/01/16 00:26:25;;;;;;;2.60;0.80;;;;;;;;;;43916;286;3031295;-34
2024/01/16 00:28:11;;;;;;;2.90;0.90;;;;;;;;;;43878;286;3031626;-34
2024/01/16 00:29:57;;;;;;;2.40;0.80;;;;;;;;;;43400;287;3030806;-34
2024/01/16 00:31:42;;;;;;;2.80;0.90;;;;;;;;;;43160;287;3032059;-34
2024/01/16 00:33:30;;;;;;;2.30;0.90;;;;;;;;;;43150;286;3031252;-34
2024/01/16 00:35:18;;;;;;;1.80;0.80;;;;;;;;;;43866;285;3031197;-34
2024/01/16 00:37:03;;;;;;;2.30;0.90;;;;;;;;;;43949;286;3031636;-34
2024/01/16 00:38:49;;;;;;;2.60;0.80;;;;;;;;;;43848;287;3031791;-34
2024/01/16 00:40:34;;;;;;;2.30;0.80;;;;;;;;;;43876;286;3031365;-34
2024/01/16 00:42:19;;;;;;;2.30;0.80;;;;;;;;;;43574;290;3031901;-34
2024/01/16 00:44:04;;;;;;;2.40;0.80;;;;;;;;;;43175;283;3031379;-33
2024/01/16 00:45:51;;;;;;;2.30;1.00;;;;;;;;;;43165;285;3031481;-33
2024/01/16 00:47:38;;;;;;;3.20;1.00;;;;;;;;;;43159;286;3031173;-33
2024/01/16 00:49:24;;;;;;;1.70;0.60;;;;;;;;;;43896;286;3031209;-34
2024/01/16 00:51:09;;;;;;;3.30;1.00;;;;;;;;;;43852;282;3031297;-34
2024/01/16 00:52:54;;;;;;;2.70;0.80;;;;;;;;;;43251;295;3031504;-34
2024/01/16 00:54:41;;;;;;;2.20;0.80;;;;;;;;;;43183;286;3032387;-34
2024/01/16 00:56:27;;;;;;;2.20;0.80;;;;;;;;;;43151;295;3031239;-34
2024/01/16 00:58:12;;;;;;;2.30;0.80;;;;;;;;;;43170;285;3031444;-33
2024/01/16 00:59:57;;;;;;;3.70;0.90;;;;;;;;;;43171;290;3031133;-33
2024/01/16 01:01:43;;;;;;;2.30;0.80;;;;;;;;;;43166;286;3032136;-34
2024/01/16 01:03:28;;;;;;;2.80;0.90;;;;;;;;;;43156;285;3031876;-34
2024/01/16 01:05:16;;;;;;;2.10;0.80;;;;;;;;;;43161;282;3031620;-34
2024/01/16 01:07:02;;;;;;;2.70;0.80;;;;;;;;;;42905;286;3031773;-34
2024/01/16 01:08:48;;;;;;;2.60;0.80;;;;;;;;;;43146;286;3030688;-34
2024/01/16 01:10:33;;;;;;;2.60;0.80;;;;;;;;;;43158;285;3030509;-34
2024/01/16 01:12:19;;;;;;;2.30;0.70;;;;;;;;;;43132;286;3037432;-34
2024/01/16 01:14:06;;;;;;;2.60;0.90;;;;;;;;;;43177;285;3030531;-33
2024/01/16 01:15:52;;;;;;;2.50;0.90;;;;;;;;;;43157;286;3030971;-33
2024/01/16 01:17:42;;;;;;;2.20;0.70;;;;;;;;;;43148;285;3031495;-33
2024/01/16 01:19:26;;;;;;;2.50;0.80;;;;;;;;;;43174;285;3030411;-33
2024/01/16 01:21:14;;;;;;;2.60;0.90;;;;;;;;;;43926;285;3029962;-33
2024/01/16 01:23:00;;;;;;;2.70;0.90;;;;;;;;;;43529;282;3030814;-33
2024/01/16 01:24:46;;;;;;;3.00;1.00;;;;;;;;;;43188;286;3031400;-33
2024/01/16 01:26:32;;;;;;;2.60;0.90;;;;;;;;;;43136;286;3031171;-33
2024/01/16 01:28:18;;;;;;;2.80;0.90;;;;;;;;;;43167;286;3030835;-34
2024/01/16 01:30:14;;;;;;;2.30;0.80;;;;;;;;;;43159;282;3031534;-34
2024/01/16 01:31:59;;;;;;;2.30;0.80;;;;;;;;;;43918;282;3031147;-34
2024/01/16 01:33:44;;;;;;;2.50;0.90;;;;;;;;;;43898;282;3030179;-34
2024/01/16 01:35:30;;;;;;;2.40;0.80;;;;;;;;;;43910;286;3030808;-34
2024/01/16 01:37:15;;;;;;;2.50;0.90;;;;;;;;;;43254;286;3030604;-34
2024/01/16 01:39:00;;;;;;;2.10;0.80;;;;;;;;;;43137;295;3031368;-34
2024/01/16 01:40:49;;;;;;;2.70;0.80;;;;;;;;;;43176;286;3031273;-34
2024/01/16 01:42:35;;;;;;;2.00;0.70;;;;;;;;;;43181;295;3030554;-34
2024/01/16 01:44:21;;;;;;;2.40;0.80;;;;;;;;;;43140;286;3030551;-34
2024/01/16 01:46:18;;;;;;;3.00;1.00;;;;;;;;;;43169;286;3031290;-34
2024/01/16 01:48:06;;;;;;;2.40;0.80;;;;;;;;;;43833;282;3030887;-34
2024/01/16 01:49:52;;;;;;;2.40;0.80;;;;;;;;;;43943;282;3031033;-34
2024/01/16 01:51:38;;;;;;;2.10;0.70;;;;;;;;;;43466;282;3030646;-34
2024/01/16 01:53:23;;;;;;;2.40;0.80;;;;;;;;;;43936;282;3037315;-34
2024/01/16 01:55:18;;;;;;;2.40;0.80;;;;;;;;;;43881;283;3030560;-34
2024/01/16 01:57:03;;;;;;;2.00;0.80;;;;;;;;;;43883;286;3031027;-34
2024/01/16 01:58:54;;;;;;;2.30;0.80;;;;;;;;;;43859;286;3030026;-34
2024/01/16 02:00:40;;;;;;;2.20;0.90;;;;;;;;;;43474;286;3030815;-34
2024/01/16 02:02:29;;;;;;;2.30;0.90;;;;;;;;;;43118;287;3030804;-34
2024/01/16 02:04:16;;;;;;;2.20;0.90;;;;;;;;;;43144;286;3030741;-33
2024/01/16 02:06:02;;;;;;;2.80;0.80;;;;;;;;;;43856;286;3030366;-33
2024/01/16 02:07:49;;;;;;;2.40;0.80;;;;;;;;;;43879;282;3031032;-34
2024/01/16 02:09:34;;;;;;;2.50;0.90;;;;;;;;;;43172;295;3030868;-34
2024/01/16 02:11:18;;;;;;;2.00;0.80;;;;;;;;;;43155;286;3031242;-34
2024/01/16 02:13:05;;;;;;;2.50;0.90;;;;;;;;;;43145;286;3030850;-34
2024/01/16 02:14:52;;;;;;;2.50;0.70;;;;;;;;;;43172;285;3030964;-34
2024/01/16 02:16:44;;;;;;;2.10;0.70;;;;;;;;;;43174;286;3030986;-34
2024/01/16 02:18:29;;;;;;;2.40;0.80;;;;;;;;;;43190;286;3031356;-34
2024/01/16 02:20:17;;;;;;;1.90;0.60;;;;;;;;;;43193;285;3031253;-34
2024/01/16 02:22:05;;;;;;;2.10;0.60;;;;;;;;;;43539;286;3030829;-34
2024/01/16 02:23:50;;;;;;;1.90;0.80;;;;;;;;;;43331;274;3037845;-34
2024/01/16 02:25:35;;;;;;;2.00;0.70;;;;;;;;;;43209;286;3031005;-34
2024/01/16 02:27:22;;;;;;;2.10;0.70;;;;;;;;;;43195;285;3031259;-34
2024/01/16 02:29:09;;;;;;;2.70;1.00;;;;;;;;;;43178;286;3031209;-34
2024/01/16 02:30:58;;;;;;;2.20;0.80;;;;;;;;;;43175;285;3030550;-33
2024/01/16 02:32:48;;;;;;;2.00;0.80;;;;;;;;;;43186;286;3030375;-34
2024/01/16 02:34:33;;;;;;;2.10;0.80;;;;;;;;;;43166;286;3031314;-34
2024/01/16 02:36:19;;;;;;;2.10;0.70;;;;;;;;;;43177;286;3031345;-34
2024/01/16 02:38:06;;;;;;;1.80;0.70;;;;;;;;;;43167;293;3031047;-34
2024/01/16 02:39:54;;;;;;;2.40;0.70;;;;;;;;;;43190;286;3031179;-34
2024/01/16 02:41:41;;;;;;;2.10;0.70;;;;;;;;;;43188;282;3031301;-34
2024/01/16 02:43:30;;;;;;;1.50;0.70;;;;;;;;;;43154;286;3030700;-34
2024/01/16 02:45:16;;;;;;;1.80;0.70;;;;;;;;;;43176;285;3030810;-34
2024/01/16 02:47:07;;;;;;;2.40;0.60;;;;;;;;;;43173;286;3031722;-34
2024/01/16 02:48:51;;;;;;;2.30;0.80;;;;;;;;;;43393;282;3030466;-34
2024/01/16 02:50:37;;;;;;;2.40;0.80;;;;;;;;;;43182;285;3030797;-34
2024/01/16 02:52:24;;;;;;;1.80;0.60;;;;;;;;;;43158;285;3030987;-34
2024/01/16 02:54:12;;;;;;;2.30;0.70;;;;;;;;;;43184;286;3030911;-34
2024/01/16 02:55:58;;;;;;;2.00;0.70;;;;;;;;;;43168;286;3030815;-34
2024/01/16 02:57:43;;;;;;;2.00;0.70;;;;;;;;;;43524;295;3030796;-34
2024/01/16 02:59:30;;;;;;;2.10;0.80;;;;;;;;;;43203;286;3030978;-34
2024/01/16 03:01:17;;;;;;;2.40;0.80;;;;;;;;;;43176;285;3030617;-34
2024/01/16 03:03:03;;;;;;;2.10;0.70;;;;;;;;;;43164;285;3031402;-34
2024/01/16 03:04:50;;;;;;;1.90;0.80;;;;;;;;;;43158;285;3039102;-34
2024/01/16 03:06:37;;;;;;;2.00;0.60;;;;;;;;;;43190;282;3030431;-34
2024/01/16 03:08:23;;;;;;;2.10;0.70;;;;;;;;;;43170;286;3032519;-34
2024/01/16 03:10:14;;;;;;;2.00;0.80;;;;;;;;;;43161;286;3031039;-34
2024/01/16 03:11:59;;;;;;;1.70;0.60;;;;;;;;;;43175;286;3030701;-34
2024/01/16 03:13:46;;;;;;;1.90;0.70;;;;;;;;;;43153;286;3030913;-34
2024/01/16 03:15:36;;;;;;;2.20;0.70;;;;;;;;;;43188;282;3030643;-34
2024/01/16 03:17:21;;;;;;;1.70;0.70;;;;;;;;;;43203;286;3031011;-34
2024/01/16 03:19:09;;;;;;;1.80;0.60;;;;;;;;;;43186;286;3030410;-34
2024/01/16 03:21:00;;;;;;;2.20;0.70;;;;;;;;;;43189;286;3030761;-34
2024/01/16 03:22:45;;;;;;;2.70;0.80;;;;;;;;;;43192;286;3031054;-34
2024/01/16 03:24:30;;;;;;;2.00;0.70;;;;;;;;;;43160;270;3030698;-34
2024/01/16 03:26:19;;;;;;;2.30;0.70;;;;;;;;;;43170;279;3031027;-34
2024/01/16 03:28:07;;;;;;;2.30;0.80;;;;;;;;;;43266;286;3030282;-34
2024/01/16 03:29:54;;;;;;;2.00;0.60;;;;;;;;;;43605;282;3031304;-34
2024/01/16 03:31:44;;;;;;;1.80;0.60;;;;;;;;;;43155;282;3030668;-34
2024/01/16 03:33:29;;;;;;;2.40;0.80;;;;;;;;;;43164;286;3030390;-33
2024/01/16 03:35:15;;;;;;;1.70;0.60;;;;;;;;;;43179;278;3030681;-33
2024/01/16 03:37:00;;;;;;;1.60;0.60;;;;;;;;;;43180;286;3030593;-33
2024/01/16 03:38:45;;;;;;;1.40;0.50;;;;;;;;;;43186;286;3031343;-34
2024/01/16 03:40:34;;;;;;;1.70;0.80;;;;;;;;;;43169;278;3030432;-34
2024/01/16 03:42:21;;;;;;;2.00;0.60;;;;;;;;;;43171;286;3030519;-34
2024/01/16 03:44:06;;;;;;;2.30;0.60;;;;;;;;;;43174;294;3030907;-34
2024/01/16 03:45:51;;;;;;;1.90;0.70;;;;;;;;;;43185;286;3036958;-34
2024/01/16 03:47:36;;;;;;;1.90;0.60;;;;;;;;;;43186;286;3030546;-34
2024/01/16 03:49:21;;;;;;;1.90;0.70;;;;;;;;;;43177;286;3031107;-34
2024/01/16 03:51:06;;;;;;;2.10;0.60;;;;;;;;;;43174;290;3031392;-33
2024/01/16 03:52:55;;;;;;;1.60;0.50;;;;;;;;;;43950;282;3031090;-34
2024/01/16 03:54:39;;;;;;;1.80;0.60;;;;;;;;;;43919;282;3029949;-34
2024/01/16 03:56:25;;;;;;;2.50;0.80;;;;;;;;;;43935;286;3037995;-33
2024/01/16 03:58:11;;;;;;;2.70;0.80;;;;;;;;;;43218;274;3030575;-34
2024/01/16 03:59:57;;;;;;;2.90;0.80;;;;;;;;;;43205;286;3031506;-34
2024/01/16 04:01:45;;;;;;;1.80;0.60;;;;;;;;;;43170;286;3031870;-34
2024/01/16 04:03:30;;;;;;;2.20;0.60;;;;;;;;;;43204;286;3030787;-34
2024/01/16 04:05:17;;;;;;;2.00;0.60;;;;;;;;;;43187;282;3030740;-34
2024/01/16 04:07:04;;;;;;;2.50;0.70;;;;;;;;;;43191;285;3030967;-34
2024/01/16 04:08:49;;;;;;;1.80;0.60;;;;;;;;;;43188;282;3030677;-34
2024/01/16 04:10:36;;;;;;;2.50;0.70;;;;;;;;;;43185;285;3030930;-34
2024/01/16 04:12:23;;;;;;;2.50;0.70;;;;;;;;;;43152;286;3030843;-34
2024/01/16 04:14:29;;;;;;;1.50;0.60;;;;;;;;;;43191;286;3031337;-34
2024/01/16 04:16:15;;;;;;;1.90;0.70;;;;;;;;;;43152;286;3030908;-34
2024/01/16 04:18:00;;;;;;;1.90;0.70;;;;;;;;;;43165;285;3031200;-34
2024/01/16 04:19:45;;;;;;;2.40;0.80;;;;;;;;;;43190;295;3030676;-34
2024/01/16 04:21:30;;;;;;;1.90;0.70;;;;;;;;;;43178;286;3032762;-34
2024/01/16 04:23:18;;;;;;;1.60;0.60;;;;;;;;;;43170;285;3030820;-34
2024/01/16 04:25:06;;;;;;;2.00;0.60;;;;;;;;;;43888;286;3030890;-34
2024/01/16 04:26:51;;;;;;;2.00;0.80;;;;;;;;;;43866;295;3038270;-34
2024/01/16 04:28:37;;;;;;;2.10;0.70;;;;;;;;;;43179;286;3030439;-34
2024/01/16 04:30:23;;;;;;;2.00;0.70;;;;;;;;;;43924;286;3030776;-34
2024/01/16 04:32:10;;;;;;;2.70;0.70;;;;;;;;;;43317;286;3030505;-34
2024/01/16 04:33:55;;;;;;;2.80;0.70;;;;;;;;;;43180;282;3030499;-34
2024/01/16 04:35:42;;;;;;;2.70;0.80;;;;;;;;;;43171;290;3033130;-34
2024/01/16 04:37:30;;;;;;;2.40;0.70;;;;;;;;;;43160;286;3037325;-34
2024/01/16 04:39:14;;;;;;;2.40;0.60;;;;;;;;;;43169;285;3031132;-34
2024/01/16 04:40:59;;;;;;;2.60;0.70;;;;;;;;;;43180;282;3030411;-34
2024/01/16 04:42:46;;;;;;;1.90;0.70;;;;;;;;;;43182;285;3030831;-34
2024/01/16 04:44:31;;;;;;;2.20;0.70;;;;;;;;;;43179;285;3030453;-34
2024/01/16 04:46:19;;;;;;;3.90;0.70;;;;;;;;;;43148;285;3031759;-33
2024/01/16 04:48:08;;;;;;;2.90;0.90;;;;;;;;;;43185;285;3031698;-33
2024/01/16 04:49:53;;;;;;;1.90;0.60;;;;;;;;;;43196;285;3030153;-34
2024/01/16 04:51:38;;;;;;;1.80;0.70;;;;;;;;;;43199;282;3030308;-34
2024/01/16 04:53:25;;;;;;;2.70;0.80;;;;;;;;;;43181;286;3030922;-33
2024/01/16 04:55:11;;;;;;;3.40;0.90;;;;;;;;;;43188;285;3031757;-33
2024/01/16 04:56:57;;;;;;;2.80;0.90;;;;;;;;;;43173;282;3031067;-33
2024/01/16 04:58:42;;;;;;;2.10;0.70;;;;;;;;;;43174;285;3031318;-33
2024/01/16 05:00:28;;;;;;;2.50;0.90;;;;;;;;;;43164;286;3031499;-33
2024/01/16 05:02:19;;;;;;;2.60;0.70;;;;;;;;;;43296;286;3030729;-34
2024/01/16 05:04:09;;;;;;;3.00;0.80;;;;;;;;;;43214;286;3030439;-34
2024/01/16 05:05:55;;;;;;;3.10;0.70;;;;;;;;;;43864;286;3030770;-34
2024/01/16 05:07:40;;;;;;;3.20;0.90;;;;;;;;;;43143;286;3030927;-34
2024/01/16 05:09:27;;;;;;;2.90;0.80;;;;;;;;;;43157;286;3030838;-34
2024/01/16 05:11:13;;;;;;;3.30;0.80;;;;;;;;;;43177;286;3030057;-34
2024/01/16 05:12:58;;;;;;;2.90;0.90;;;;;;;;;;43204;270;3031046;-33
2024/01/16 05:14:46;;;;;;;2.10;0.70;;;;;;;;;;43194;285;3030223;-33
2024/01/16 05:16:34;;;;;;;2.90;0.80;;;;;;;;;;43860;285;3031300;-34
2024/01/16 05:18:19;;;;;;;2.80;0.80;;;;;;;;;;43964;282;3030807;-34
2024/01/16 05:20:06;;;;;;;2.40;0.80;;;;;;;;;;43925;286;3030479;-34
2024/01/16 05:21:55;;;;;;;2.60;0.80;;;;;;;;;;43968;282;3031233;-34
2024/01/16 05:23:39;;;;;;;2.40;0.70;;;;;;;;;;43398;295;3030489;-34
2024/01/16 05:25:27;;;;;;;2.10;0.70;;;;;;;;;;43165;286;3030608;-34
2024/01/16 05:27:19;;;;;;;2.70;0.90;;;;;;;;;;43185;285;3030924;-34
2024/01/16 05:29:04;;;;;;;3.10;0.80;;;;;;;;;;43190;285;3032082;-34
2024/01/16 05:30:50;;;;;;;2.30;0.80;;;;;;;;;;43203;286;3031172;-34
2024/01/16 05:32:35;;;;;;;2.40;0.70;;;;;;;;;;43165;286;3030650;-34
2024/01/16 05:34:20;;;;;;;2.20;0.70;;;;;;;;;;43196;286;3030213;-34
2024/01/16 05:36:09;;;;;;;2.80;0.90;;;;;;;;;;43186;282;3030725;-34
2024/01/16 05:37:55;;;;;;;2.20;0.60;;;;;;;;;;43931;282;3031639;-34
2024/01/16 05:39:47;;;;;;;2.40;0.70;;;;;;;;;;43869;287;3031255;-34
2024/01/16 05:41:36;;;;;;;3.30;0.90;;;;;;;;;;43943;286;3030966;-34
2024/01/16 05:43:22;;;;;;;2.10;0.70;;;;;;;;;;43915;286;3031289;-34
2024/01/16 05:45:09;;;;;;;2.60;0.90;;;;;;;;;;43869;286;3030312;-34
2024/01/16 05:46:55;;;;;;;2.50;0.80;;;;;;;;;;43915;274;3030486;-34
2024/01/16 05:48:40;;;;;;;1.90;0.70;;;;;;;;;;43890;283;3029982;-34
2024/01/16 05:50:26;;;;;;;2.90;0.80;;;;;;;;;;43917;286;3030709;-34
2024/01/16 05:52:12;;;;;;;2.40;0.80;;;;;;;;;;43580;285;3030146;-34
2024/01/16 05:53:57;;;;;;;2.40;0.70;;;;;;;;;;43926;282;3031278;-34
2024/01/16 05:55:42;;;;;;;2.80;0.90;;;;;;;;;;43326;285;3030819;-34
2024/01/16 05:57:31;;;;;;;2.90;0.90;;;;;;;;;;43182;285;3031244;-34
2024/01/16 05:59:16;;;;;;;2.60;0.90;;;;;;;;;;43184;286;3036770;-34
2024/01/16 06:01:03;;;;;;;2.90;0.90;;;;;;;;;;43166;295;3031148;-34
2024/01/16 06:02:48;;;;;;;2.50;0.80;;;;;;;;;;43175;282;3032189;-33
2024/01/16 06:04:36;;;;;;;2.70;0.80;;;;;;;;;;43184;286;3030928;-33
2024/01/16 06:06:21;;;;;;;2.70;0.90;;;;;;;;;;43866;284;3030845;-33
2024/01/16 06:08:07;;;;;;;3.20;0.70;;;;;;;;;;43278;287;3030823;-34
2024/01/16 06:09:52;;;;;;;2.50;0.80;;;;;;;;;;43170;288;3031227;-34
2024/01/16 06:11:40;;;;;;;2.90;0.80;;;;;;;;;;43147;287;3031152;-34
2024/01/16 06:13:32;;;;;;;2.90;0.90;;;;;;;;;;43153;287;3030928;-34
2024/01/16 06:15:18;;;;;;;3.10;1.00;;;;;;;;;;43145;296;3031432;-34
2024/01/16 06:17:06;;;;;;;3.10;0.90;;;;;;;;;;43176;296;3030399;-34
2024/01/16 06:18:50;;;;;;;3.10;1.00;;;;;;;;;;43590;283;3030869;-34
2024/01/16 06:20:35;;;;;;;2.90;0.90;;;;;;;;;;43187;287;3030921;-34
2024/01/16 06:22:22;;;;;;;3.50;1.10;;;;;;;;;;43161;284;3031548;-34
2024/01/16 06:24:11;;;;;;;3.00;1.10;;;;;;;;;;43160;284;3030709;-33
2024/01/16 06:25:59;;;;;;;3.80;1.10;;;;;;;;;;43388;287;3031362;-33
2024/01/16 06:27:45;;;;;;;4.00;1.20;;;;;;;;;;43175;288;3031312;-33
2024/01/16 06:29:30;;;;;;;2.90;1.00;;;;;;;;;;43142;287;3030610;-34
2024/01/16 06:31:20;;;;;;;3.30;1.00;;;;;;;;;;43154;287;3030693;-34
2024/01/16 06:33:07;;;;;;;3.10;1.00;;;;;;;;;;43159;284;3030893;-34
2024/01/16 06:34:52;;;;;;;3.30;1.10;;;;;;;;;;43166;288;3029200;-34
2024/01/16 06:36:38;;;;;;;2.80;1.00;;;;;;;;;;43176;287;3030884;-34
2024/01/16 06:38:27;;;;;;;3.60;1.00;;;;;;;;;;43146;287;3031262;-34
2024/01/16 06:40:13;;;;;;;3.50;1.10;;;;;;;;;;43159;287;3038157;-34
2024/01/16 06:41:59;;;;;;;3.00;1.00;;;;;;;;;;43867;283;3030668;-34
2024/01/16 06:43:44;;;;;;;2.90;1.00;;;;;;;;;;43171;288;3030821;-34
2024/01/16 06:45:28;;;;;;;2.70;1.00;;;;;;;;;;43183;284;3030885;-34
2024/01/16 06:47:17;;;;;;;3.50;1.10;;;;;;;;;;43148;287;3031039;-34
2024/01/16 06:49:05;;;;;;;3.60;1.10;;;;;;;;;;43167;288;3030839;-34
2024/01/16 06:50:52;;;;;;;3.10;0.90;;;;;;;;;;43179;287;3030487;-34
2024/01/16 06:52:36;;;;;;;3.00;0.90;;;;;;;;;;43160;287;3031574;-34
2024/01/16 06:54:24;;;;;;;3.30;1.10;;;;;;;;;;43144;288;3030657;-34
2024/01/16 06:56:13;;;;;;;3.10;0.90;;;;;;;;;;43152;288;3030372;-34
2024/01/16 06:58:00;;;;;;;3.20;1.10;;;;;;;;;;43154;287;3031127;-34
2024/01/16 06:59:48;;;;;;;3.50;1.20;;;;;;;;;;43143;296;3030900;-34
2024/01/16 07:01:34;;;;;;;3.20;0.90;;;;;;;;;;43176;287;3032085;-34
2024/01/16 07:03:19;;;;;;;3.10;1.20;;;;;;;;;;43205;286;3030791;-34
2024/01/16 07:05:04;;;;;;;3.30;1.10;;;;;;;;;;43227;294;3030105;-34
2024/01/16 07:06:50;;;;;;;3.10;0.90;;;;;;;;;;43285;285;3031249;-33
2024/01/16 07:08:38;;;;;;;2.80;1.00;;;;;;;;;;43268;285;3029562;-33
2024/01/16 07:10:24;;;;;;;2.80;0.90;;;;;;;;;;43257;282;3030161;-33
2024/01/16 07:12:15;;;;;;;3.20;0.90;;;;;;;;;;43253;269;3031480;-33
2024/01/16 07:14:03;;;;;;;2.90;0.90;;;;;;;;;;43279;285;3033419;-33
2024/01/16 07:15:49;;;;;;;3.00;1.00;;;;;;;;;;43269;273;3031307;-33
2024/01/16 07:17:37;;;;;;;3.40;1.10;;;;;;;;;;43236;286;3030635;-33
2024/01/16 07:19:22;;;;;;;3.40;1.00;;;;;;;;;;43222;278;3030464;-33
2024/01/16 07:21:18;;;;;;;3.50;1.10;;;;;;;;;;43260;282;3037296;-33
2024/01/16 07:23:06;;;;;;;3.10;0.90;;;;;;;;;;43291;285;3030318;-33
2024/01/16 07:24:51;;;;;;;3.70;1.10;;;;;;;;;;43743;281;3030700;-33
2024/01/16 07:26:35;;;;;;;2.60;0.90;;;;;;;;;;43256;294;3030938;-33
2024/01/16 07:28:22;;;;;;;3.50;1.30;;;;;;;;;;43255;285;3030756;-33
2024/01/16 07:30:11;;;;;;;3.20;1.10;;;;;;;;;;43250;277;3029557;-33
2024/01/16 07:31:55;;;;;;;3.50;1.00;;;;;;;;;;43382;281;3030775;-33
2024/01/16 07:33:40;;;;;;;3.30;1.10;;;;;;;;;;43256;285;3031113;-33
2024/01/16 07:35:26;;;;;;;4.10;1.30;;;;;;;;;;43263;293;3031302;-33
2024/01/16 07:37:11;;;;;;;5.30;1.50;;;;;;;;;;43272;285;3031113;-33
2024/01/16 07:38:56;;;;;;;4.10;1.20;;;;;;;;;;43264;285;3030748;-33
2024/01/16 07:40:41;;;;;;;5.00;1.30;;;;;;;;;;43263;274;3030229;-33
2024/01/16 07:42:33;;;;;;;5.00;1.40;;;;;;;;;;43267;282;3030483;-33
2024/01/16 07:44:21;;;;;;;4.30;1.30;;;;;;;;;;43246;285;3031026;-33
2024/01/16 07:46:07;;;;;;;4.60;1.40;;;;;;;;;;43664;273;3030860;-33
2024/01/16 07:47:54;;;;;;;5.00;1.30;;;;;;;;;;43304;285;3031454;-33
2024/01/16 07:49:39;;;;;;;4.50;1.50;;;;;;;;;;43283;281;3030335;-33
2024/01/16 07:51:26;;;;;;;3.80;1.20;;;;;;;;;;43240;281;3031569;-33
2024/01/16 07:53:11;;;;;;;4.30;1.30;;;;;;;;;;43261;285;3032796;-33
2024/01/16 07:54:56;;;;;;;4.40;1.20;;;;;;;;;;43285;281;3030782;-33
2024/01/16 07:56:44;;;;;;;3.50;1.30;;;;;;;;;;43277;273;3030928;-34
2024/01/16 07:58:31;;;;;;;3.90;1.40;;;;;;;;;;43274;285;3030508;-34
2024/01/16 08:00:22;;;;;;;3.70;1.30;;;;;;;;;;43232;285;3030801;-34
2024/01/16 08:02:08;;;;;;;5.40;1.60;;;;;;;;;;43413;282;3037467;-34
2024/01/16 08:03:53;;;;;;;4.70;1.70;;;;;;;;;;43194;286;3031135;-34
2024/01/16 08:05:39;;;;;;;4.20;1.30;;;;;;;;;;43169;286;3030076;-34
2024/01/16 08:07:24;;;;;;;4.60;1.50;;;;;;;;;;43181;286;3031288;-34
2024/01/16 08:09:11;;;;;;;4.00;1.50;;;;;;;;;;43181;295;3030690;-34
2024/01/16 08:10:56;;;;;;;4.60;1.50;;;;;;;;;;43168;286;3031084;-34
2024/01/16 08:12:43;;;;;;;4.50;1.50;;;;;;;;;;43183;286;3030013;-34
2024/01/16 08:14:29;;;;;;;4.40;1.40;;;;;;;;;;43168;279;3030287;-34
2024/01/16 08:16:15;;;;;;;4.40;1.50;;;;;;;;;;43149;286;3030836;-33
2024/01/16 08:18:06;;;;;;;3.70;1.20;;;;;;;;;;43177;286;3030534;-43
2024/01/16 08:19:50;;;;;;;4.00;1.30;;;;;;;;;;43693;273;3030235;-33
2024/01/16 08:21:36;;;;;;;4.10;1.30;;;;;;;;;;43235;285;3031025;-32
2024/01/16 08:23:21;;;;;;;4.80;1.50;;;;;;;;;;43271;285;3030333;-33
2024/01/16 08:25:08;;;;;;;4.40;1.30;;;;;;;;;;43237;285;3030554;-34
2024/01/16 08:26:53;;;;;;;3.80;1.20;;;;;;;;;;43525;285;3031029;-34
2024/01/16 08:28:40;;;;;;;3.70;1.40;;;;;;;;;;43274;282;3031127;-34
2024/01/16 08:30:25;;;;;;;4.00;1.30;;;;;;;;;;43259;285;3030466;-34
2024/01/16 08:32:10;;;;;;;3.90;1.40;;;;;;;;;;43234;285;3030513;-34
2024/01/16 08:33:57;;;;;;;4.90;1.30;;;;;;;;;;43283;286;3031055;-33
2024/01/16 08:35:45;;;;;;;3.60;1.20;;;;;;;;;;43248;289;3031011;-33
2024/01/16 08:37:32;;;;;;;3.80;1.40;;;;;;;;;;43253;286;3030977;-33
2024/01/16 08:39:17;;;;;;;4.60;1.50;;;;;;;;;;43299;285;3030825;-34
2024/01/16 08:41:06;;;;;;;4.70;1.60;;;;;;;;;;43281;285;3031569;-35
2024/01/16 08:42:54;;;;;;;4.20;1.40;;;;;;;;;;43334;285;3038271;-33
2024/01/16 08:44:41;;;;;;;4.40;1.50;;;;;;;;;;43234;285;3031844;-33
2024/01/16 08:46:27;;;;;;;4.40;1.60;;;;;;;;;;43256;282;3031950;-33
2024/01/16 08:48:14;;;;;;;4.40;1.60;;;;;;;;;;43248;291;3030471;-33
2024/01/16 08:50:02;;;;;;;5.30;1.60;;;;;;;;;;43256;285;3031413;-34
2024/01/16 08:51:49;;;;;;;4.30;1.60;;;;;;;;;;43226;277;3031095;-33
2024/01/16 08:53:34;;;;;;;4.70;1.60;;;;;;;;;;43271;285;3030517;-33
2024/01/16 08:55:19;;;;;;;5.20;1.60;;;;;;;;;;43251;281;3031304;-33
2024/01/16 08:57:05;;;;;;;3.90;1.40;;;;;;;;;;43277;285;3030031;-33
2024/01/16 08:58:50;;;;;;;4.90;1.80;;;;;;;;;;43693;285;3031033;-33
2024/01/16 09:00:34;;;;;;;4.50;1.60;;;;;;;;;;43253;285;3030497;-34
2024/01/16 09:02:22;;;;;;;4.00;1.40;;;;;;;;;;43216;285;3031110;-34
2024/01/16 09:04:07;;;;;;;4.20;1.50;;;;;;;;;;43203;286;3030842;-34
2024/01/16 09:05:54;;;;;;;4.10;1.40;;;;;;;;;;43199;286;3030572;-34
2024/01/16 09:07:41;;;;;;;4.30;1.50;;;;;;;;;;42880;282;3382320;-34
2024/01/16 09:09:26;;;;;;;4.90;1.40;;;;;;;;;;43212;282;3030322;-34
2024/01/16 09:11:11;;;;;;;4.30;1.30;;;;;;;;;;43271;294;3031218;-34
2024/01/16 09:12:56;;;;;;;4.20;1.50;;;;;;;;;;43264;285;3033008;-34
2024/01/16 09:14:45;;;;;;;4.30;1.60;;;;;;;;;;43240;285;3031093;-34
2024/01/16 09:16:29;;;;;;;4.30;1.40;;;;;;;;;;43269;281;3031759;-34
2024/01/16 09:18:17;;;;;;;4.20;1.40;;;;;;;;;;43266;285;3031266;-34
2024/01/16 09:20:03;;;;;;;4.30;1.40;;;;;;;;;;43270;285;3031675;-34
2024/01/16 09:21:48;;;;;;;4.40;1.30;;;;;;;;;;43957;285;3030749;-34
2024/01/16 09:23:33;;;;;;;3.90;1.30;;;;;;;;;;44001;285;3031104;-33
2024/01/16 09:25:18;;;;;;;3.40;1.10;;;;;;;;;;43786;281;3030695;-34
2024/01/16 09:27:06;;;;;;;3.70;1.30;;;;;;;;;;43269;286;3031225;-34
2024/01/16 09:28:51;;;;;;;3.90;1.30;;;;;;;;;;43840;286;3030479;-33
2024/01/16 09:30:35;;;;;;;4.70;1.40;;;;;;;;;;43142;286;3030933;-33
2024/01/16 09:32:20;;;;;;;5.80;1.50;;;;;;;;;;43149;296;3031096;-33
2024/01/16 09:34:07;;;;;;;4.30;1.40;;;;;;;;;;43145;282;3036115;-33
2024/01/16 09:35:54;;;;;;;4.90;1.30;;;;;;;;;;43165;295;3031130;-33
2024/01/16 09:37:39;;;;;;;4.50;1.20;;;;;;;;;;43170;282;3030966;-33
2024/01/16 09:39:24;;;;;;;3.50;1.20;;;;;;;;;;43159;286;3031417;-33
2024/01/16 09:41:09;;;;;;;4.60;1.40;;;;;;;;;;43170;286;3030434;-33
2024/01/16 09:42:56;;;;;;;4.00;1.40;;;;;;;;;;43144;286;3031286;-33
2024/01/16 09:44:41;;;;;;;3.90;1.30;;;;;;;;;;43165;286;3037322;-33
2024/01/16 09:46:29;;;;;;;3.90;1.40;;;;;;;;;;43938;282;3031544;-33
2024/01/16 09:48:16;;;;;;;4.60;1.30;;;;;;;;;;43680;282;3030923;-34
2024/01/16 09:50:02;;;;;;;3.70;1.30;;;;;;;;;;43162;282;3031348;-33
2024/01/16 09:51:48;;;;;;;3.20;1.10;;;;;;;;;;43154;286;3031201;-33
2024/01/16 09:53:33;;;;;;;4.50;1.30;;;;;;;;;;43131;286;3031641;-33
2024/01/16 09:55:21;;;;;;;3.50;1.30;;;;;;;;;;43182;282;3031395;-33
2024/01/16 09:57:09;;;;;;;3.60;1.10;;;;;;;;;;43492;286;3030294;-33
2024/01/16 09:59:02;;;;;;;3.70;1.20;;;;;;;;;;43152;287;3030927;-33
2024/01/16 10:00:49;;;;;;;3.10;1.00;;;;;;;;;;43187;286;3031007;-33
2024/01/16 10:02:34;;;;;;;3.60;1.30;;;;;;;;;;43167;286;3030634;-33
2024/01/16 10:04:19;;;;;;;3.40;1.20;;;;;;;;;;43128;286;3031041;-33
2024/01/16 10:06:07;;;;;;;4.80;1.30;;;;;;;;;;43159;283;3031728;-34
2024/01/16 10:07:56;;;;;;;2.70;1.00;;;;;;;;;;43873;275;3031152;-33
2024/01/16 10:09:41;;;;;;;4.00;1.30;;;;;;;;;;43175;286;3030564;-33
2024/01/16 10:11:26;;;;;;;3.90;1.40;;;;;;;;;;43502;286;3031303;-33
2024/01/16 10:13:11;;;;;;;3.70;1.20;;;;;;;;;;43264;281;3030680;-33
2024/01/16 10:14:58;;;;;;;4.10;1.30;;;;;;;;;;43268;281;3032291;-33
2024/01/16 10:17:05;;;;;;;3.40;1.20;;;;;;;;;;43230;285;3030386;-33
2024/01/16 10:18:51;;;;;;;3.00;1.10;;;;;;;;;;43733;274;3030569;-34
2024/01/16 10:20:41;;;;;;;3.40;1.10;;;;;;;;;;43862;282;3030073;-34
2024/01/16 10:22:27;;;;;;;3.40;1.20;;;;;;;;;;43896;286;3031369;-33
2024/01/16 10:24:16;;;;;;;4.00;1.10;;;;;;;;;;43874;282;3030473;-33
2024/01/16 10:26:13;;;;;;;3.20;1.10;;;;;;;;;;43445;282;3031054;-34
2024/01/16 10:28:11;;;;;;;3.50;1.20;;;;;;;;;;43685;285;3031264;-35
2024/01/16 10:30:00;;;;;;;3.70;1.20;;;;;;;;;;43961;286;3031142;-35
2024/01/16 10:31:45;;;;;;;3.30;1.10;;;;;;;;;;43993;281;3030704;-35